createdAt,value
2023-05-09T00:00:53.201Z,18.60
2023-05-09T00:03:21.041Z,18.70
2023-05-09T00:05:48.240Z,18.60
2023-05-09T00:08:15.524Z,18.60
2023-05-09T00:10:42.539Z,18.50
2023-05-09T00:13:09.562Z,18.60
2023-05-09T00:15:36.501Z,18.50
2023-05-09T00:18:03.539Z,18.50
2023-05-09T00:20:30.594Z,18.50
2023-05-09T00:22:57.568Z,18.50
2023-05-09T00:25:24.696Z,18.50
2023-05-09T00:27:51.640Z,18.40
2023-05-09T00:30:19.210Z,18.40
2023-05-09T00:32:46.262Z,18.40
2023-05-09T00:35:13.500Z,18.10
2023-05-09T00:37:40.745Z,18.40
2023-05-09T00:40:09.189Z,18.40
2023-05-09T00:42:37.818Z,18.40
2023-05-09T00:45:06.142Z,18.40
2023-05-09T00:47:34.972Z,18.30
2023-05-09T00:50:02.753Z,18.30
2023-05-09T00:52:32.669Z,18.40
2023-05-09T00:55:00.677Z,18.40
2023-05-09T00:57:27.705Z,18.30
2023-05-09T00:59:54.884Z,18.30
2023-05-09T01:02:22.195Z,18.30
2023-05-09T01:04:49.319Z,18.30
2023-05-09T01:07:45.996Z,18.40
2023-05-09T01:10:46.684Z,18.30
2023-05-09T01:13:31.959Z,18.30
2023-05-09T01:16:09.162Z,18.30
2023-05-09T01:19:40.914Z,18.30
2023-05-09T01:22:14.101Z,18.30
2023-05-09T01:25:31.811Z,18.30
2023-05-09T01:28:18.945Z,18.30
2023-05-09T01:30:51.708Z,18.30
2023-05-09T01:33:21.446Z,18.30
2023-05-09T01:35:59.650Z,18.30
2023-05-09T01:38:31.374Z,18.40
2023-05-09T01:41:00.445Z,18.30
2023-05-09T01:43:30.230Z,18.10
2023-05-09T01:45:59.444Z,18.10
2023-05-09T01:48:30.003Z,18.20
2023-05-09T01:50:59.278Z,18.10
2023-05-09T01:53:29.924Z,18.20
2023-05-09T01:56:00.045Z,18.10
2023-05-09T01:58:28.082Z,18.10
2023-05-09T02:00:55.766Z,18.10
2023-05-09T02:03:23.919Z,18.10
2023-05-09T02:05:52.096Z,18.30
2023-05-09T02:08:21.931Z,18.20
2023-05-09T02:10:53.009Z,18.10
2023-05-09T02:13:20.085Z,18.20
2023-05-09T02:15:47.872Z,18.10
2023-05-09T02:18:16.919Z,18.00
2023-05-09T02:20:44.032Z,18.00
2023-05-09T02:23:11.989Z,18.00
2023-05-09T02:25:41.259Z,18.00
2023-05-09T02:28:10.266Z,17.90
2023-05-09T02:30:44.124Z,17.90
2023-05-09T02:33:12.849Z,17.80
2023-05-09T02:35:46.250Z,17.80
2023-05-09T02:38:14.764Z,17.80
2023-05-09T02:40:46.682Z,17.80
2023-05-09T02:43:15.053Z,17.70
2023-05-09T02:45:42.285Z,17.70
2023-05-09T02:48:09.624Z,17.70
2023-05-09T02:50:38.329Z,17.70
2023-05-09T02:53:06.195Z,17.70
2023-05-09T02:55:33.289Z,17.60
2023-05-09T02:58:12.650Z,17.70
2023-05-09T03:00:42.786Z,17.70
2023-05-09T03:03:10.696Z,17.70
2023-05-09T03:05:37.923Z,17.70
2023-05-09T03:08:05.329Z,17.70
2023-05-09T03:10:34.228Z,17.70
2023-05-09T03:13:01.624Z,17.60
2023-05-09T03:15:28.638Z,17.70
2023-05-09T03:17:56.482Z,17.60
2023-05-09T03:20:23.623Z,17.70
2023-05-09T03:22:50.687Z,17.60
2023-05-09T03:25:17.768Z,17.70
2023-05-09T03:27:45.221Z,17.60
2023-05-09T03:30:15.507Z,17.60
2023-05-09T03:32:44.532Z,17.60
2023-05-09T03:35:11.590Z,17.60
2023-05-09T03:37:38.682Z,17.50
2023-05-09T03:40:08.836Z,17.60
2023-05-09T03:42:41.849Z,17.60
2023-05-09T03:45:09.689Z,17.60
2023-05-09T03:47:36.808Z,17.50
2023-05-09T03:50:04.235Z,17.50
2023-05-09T03:52:31.659Z,17.40
2023-05-09T03:54:59.152Z,17.40
2023-05-09T03:57:27.071Z,17.40
2023-05-09T03:59:56.656Z,17.50
2023-05-09T04:02:24.029Z,17.30
2023-05-09T04:04:52.645Z,17.50
2023-05-09T04:07:22.174Z,17.30
2023-05-09T04:09:50.181Z,17.20
2023-05-09T04:12:17.104Z,17.30
2023-05-09T04:14:46.736Z,17.20
2023-05-09T04:17:15.398Z,17.30
2023-05-09T04:19:42.330Z,17.20
2023-05-09T04:22:09.817Z,17.20
2023-05-09T04:24:36.946Z,17.20
2023-05-09T04:27:04.169Z,17.10
2023-05-09T04:29:31.454Z,17.10
2023-05-09T04:31:59.444Z,17.00
2023-05-09T04:34:27.781Z,17.10
2023-05-09T04:36:56.023Z,17.10
2023-05-09T04:39:23.660Z,17.20
2023-05-09T04:41:59.776Z,17.20
2023-05-09T04:44:26.801Z,17.30
2023-05-09T04:46:55.114Z,17.20
2023-05-09T04:49:22.080Z,17.30
2023-05-09T04:51:49.187Z,17.30
2023-05-09T04:54:16.175Z,17.50
2023-05-09T04:56:43.594Z,17.40
2023-05-09T04:59:10.710Z,17.60
2023-05-09T05:01:37.768Z,17.70
2023-05-09T05:04:05.071Z,18.00
2023-05-09T05:06:33.143Z,17.80
2023-05-09T05:09:00.629Z,17.90
2023-05-09T05:11:27.894Z,18.00
2023-05-09T05:13:55.217Z,18.30
2023-05-09T05:16:23.127Z,18.10
2023-05-09T05:18:50.228Z,18.20
2023-05-09T05:21:19.083Z,18.30
2023-05-09T05:23:46.200Z,18.30
2023-05-09T05:26:14.666Z,18.40
2023-05-09T05:28:41.800Z,18.50
2023-05-09T05:31:08.836Z,18.60
2023-05-09T05:33:35.785Z,18.60
2023-05-09T05:36:03.567Z,18.80
2023-05-09T05:38:30.651Z,18.90
2023-05-09T05:40:59.114Z,19.00
2023-05-09T05:43:27.970Z,19.10
2023-05-09T05:45:55.751Z,19.20
2023-05-09T05:48:23.932Z,19.20
2023-05-09T05:50:53.004Z,19.30
2023-05-09T05:53:23.928Z,19.40
2023-05-09T05:55:51.504Z,19.50
2023-05-09T05:58:18.653Z,19.60
2023-05-09T06:00:45.893Z,19.60
2023-05-09T06:03:14.562Z,19.70
2023-05-09T06:05:50.078Z,19.70
2023-05-09T06:08:17.447Z,19.80
2023-05-09T06:10:44.532Z,19.80
2023-05-09T06:13:11.626Z,19.90
2023-05-09T06:15:42.130Z,19.90
2023-05-09T06:18:09.318Z,20.00
2023-05-09T06:20:36.381Z,20.00
2023-05-09T06:23:03.390Z,20.10
2023-05-09T06:25:30.387Z,20.10
2023-05-09T06:27:57.352Z,20.20
2023-05-09T06:30:26.826Z,20.30
2023-05-09T06:32:55.454Z,20.40
2023-05-09T06:35:22.620Z,20.50
2023-05-09T06:37:50.223Z,20.70
2023-05-09T06:40:17.346Z,20.90
2023-05-09T06:42:45.034Z,21.10
2023-05-09T06:45:12.368Z,21.40
2023-05-09T06:47:39.639Z,21.60
2023-05-09T06:50:07.805Z,21.80
2023-05-09T06:52:34.794Z,22.10
2023-05-09T06:55:02.372Z,22.50
2023-05-09T06:57:29.453Z,22.60
2023-05-09T06:59:57.266Z,22.80
2023-05-09T07:02:24.265Z,23.00
2023-05-09T07:04:51.282Z,23.00
2023-05-09T07:07:18.346Z,23.20
2023-05-09T07:09:45.417Z,23.20
2023-05-09T07:12:12.465Z,23.30
2023-05-09T07:14:41.708Z,23.40
2023-05-09T07:17:21.933Z,23.40
2023-05-09T07:19:51.075Z,23.50
2023-05-09T07:22:18.123Z,23.60
2023-05-09T07:24:46.314Z,23.70
2023-05-09T07:27:13.634Z,23.80
2023-05-09T07:29:40.620Z,23.90
2023-05-09T07:32:08.083Z,24.00
2023-05-09T07:34:36.185Z,24.20
2023-05-09T07:37:03.318Z,24.40
2023-05-09T07:39:30.318Z,24.70
2023-05-09T07:41:57.249Z,24.90
2023-05-09T07:44:24.255Z,25.10
2023-05-09T07:46:51.436Z,25.30
2023-05-09T07:49:18.401Z,25.50
2023-05-09T07:51:45.359Z,25.70
2023-05-09T07:54:12.864Z,25.80
2023-05-09T07:56:39.821Z,26.10
2023-05-09T07:59:06.782Z,26.30
2023-05-09T08:01:33.864Z,26.70
2023-05-09T08:04:00.915Z,26.90
2023-05-09T08:06:28.021Z,27.10
2023-05-09T08:08:54.996Z,27.30
2023-05-09T08:11:21.964Z,27.50
2023-05-09T08:13:48.958Z,27.70
2023-05-09T08:16:17.363Z,28.00
2023-05-09T08:18:44.890Z,28.20
2023-05-09T08:21:12.267Z,28.50
2023-05-09T08:23:40.535Z,28.70
2023-05-09T08:26:07.572Z,29.00
2023-05-09T08:28:34.551Z,29.20
2023-05-09T08:31:01.499Z,29.40
2023-05-09T08:33:29.702Z,29.60
2023-05-09T08:35:56.741Z,29.90
2023-05-09T08:38:24.722Z,30.10
2023-05-09T08:40:51.922Z,30.20
2023-05-09T08:43:23.641Z,30.40
2023-05-09T08:45:58.672Z,30.70
2023-05-09T08:48:27.906Z,31.00
2023-05-09T08:50:56.141Z,31.20
2023-05-09T08:53:23.557Z,31.40
2023-05-09T08:55:51.091Z,31.60
2023-05-09T08:58:22.386Z,31.70
2023-05-09T09:00:50.664Z,31.70
2023-05-09T09:03:18.476Z,31.70
2023-05-09T09:05:48.591Z,31.60
2023-05-09T09:08:16.800Z,31.40
2023-05-09T09:10:48.205Z,31.10
2023-05-09T09:13:18.111Z,30.80
2023-05-09T09:15:48.100Z,30.40
2023-05-09T09:18:28.053Z,30.00
2023-05-09T09:21:06.191Z,29.60
2023-05-09T09:23:34.035Z,29.20
2023-05-09T09:26:04.917Z,28.90
2023-05-09T09:28:32.787Z,28.60
2023-05-09T09:30:59.772Z,28.40
2023-05-09T09:33:29.109Z,28.10
2023-05-09T09:35:57.052Z,27.80
2023-05-09T09:38:25.205Z,27.60
2023-05-09T09:40:52.090Z,27.40
2023-05-09T09:43:19.324Z,27.40
2023-05-09T09:45:53.114Z,27.30
2023-05-09T09:48:25.877Z,27.40
2023-05-09T09:50:56.775Z,27.40
2023-05-09T09:53:30.133Z,27.60
2023-05-09T09:55:57.368Z,27.70
2023-05-09T09:58:26.942Z,27.80
2023-05-09T10:01:07.052Z,28.00
2023-05-09T10:03:47.962Z,28.20
2023-05-09T10:06:16.679Z,28.40
2023-05-09T10:08:49.102Z,28.60
2023-05-09T10:11:16.503Z,28.80
2023-05-09T10:13:44.695Z,29.00
2023-05-09T10:16:13.716Z,29.20
2023-05-09T10:18:42.613Z,29.30
2023-05-09T10:21:15.355Z,29.60
2023-05-09T10:23:49.487Z,29.90
2023-05-09T10:26:28.585Z,30.20
2023-05-09T10:28:57.885Z,30.50
2023-05-09T10:31:32.492Z,30.60
2023-05-09T10:34:08.380Z,30.70
2023-05-09T10:36:36.412Z,30.70
2023-05-09T10:39:03.585Z,30.80
2023-05-09T10:41:31.367Z,30.80
2023-05-09T10:43:59.582Z,30.70
2023-05-09T10:46:27.966Z,30.60
2023-05-09T10:48:55.750Z,30.40
2023-05-09T10:51:25.037Z,30.20
2023-05-09T10:53:52.082Z,29.90
2023-05-09T10:56:31.737Z,29.70
2023-05-09T10:59:00.301Z,29.40
2023-05-09T11:01:38.526Z,29.10
2023-05-09T11:04:14.918Z,28.80
2023-05-09T11:06:42.102Z,28.50
2023-05-09T11:09:35.739Z,28.20
2023-05-09T11:12:05.722Z,27.90
2023-05-09T11:14:46.965Z,27.60
2023-05-09T11:17:31.666Z,27.40
2023-05-09T11:20:03.318Z,27.00
2023-05-09T11:22:41.929Z,27.00
2023-05-09T11:25:15.053Z,26.80
2023-05-09T11:27:48.537Z,26.70
2023-05-09T11:30:20.596Z,26.50
2023-05-09T11:32:55.735Z,26.40
2023-05-09T11:35:24.138Z,26.30
2023-05-09T11:38:07.069Z,26.20
2023-05-09T11:40:35.357Z,26.10
2023-05-09T11:43:02.424Z,26.00
2023-05-09T11:45:32.375Z,25.90
2023-05-09T11:48:01.086Z,25.80
2023-05-09T11:50:28.766Z,25.70
2023-05-09T11:52:55.891Z,25.70
2023-05-09T11:55:23.289Z,25.70
2023-05-09T11:57:53.293Z,25.70
2023-05-09T12:00:25.600Z,25.70
2023-05-09T12:02:53.720Z,25.80
2023-05-09T12:05:23.229Z,25.80
2023-05-09T12:07:51.072Z,25.80
2023-05-09T12:10:23.123Z,25.80
2023-05-09T12:12:52.897Z,25.80
2023-05-09T12:15:21.821Z,25.80
2023-05-09T12:18:05.150Z,25.80
2023-05-09T12:20:45.960Z,25.80
2023-05-09T12:23:14.758Z,25.80
2023-05-09T12:25:57.534Z,25.70
2023-05-09T12:28:26.343Z,25.70
2023-05-09T12:30:54.624Z,25.60
2023-05-09T12:33:22.461Z,25.60
2023-05-09T12:36:12.113Z,25.50
2023-05-09T12:38:39.905Z,25.40
2023-05-09T12:41:22.461Z,25.40
2023-05-09T12:43:58.360Z,25.20
2023-05-09T12:46:25.539Z,25.10
2023-05-09T12:48:52.664Z,25.00
2023-05-09T12:51:21.573Z,25.00
2023-05-09T12:53:49.665Z,25.10
2023-05-09T12:56:23.572Z,24.70
2023-05-09T12:58:53.324Z,24.70
2023-05-09T13:01:28.986Z,24.70
2023-05-09T13:04:04.668Z,24.60
2023-05-09T13:06:31.755Z,24.50
2023-05-09T13:09:02.254Z,24.40
2023-05-09T13:11:29.759Z,24.20
2023-05-09T13:13:57.116Z,24.20
2023-05-09T13:16:24.469Z,24.00
2023-05-09T13:18:51.433Z,23.90
2023-05-09T13:21:18.415Z,23.80
2023-05-09T13:23:45.742Z,23.60
2023-05-09T13:26:12.919Z,23.50
2023-05-09T13:28:39.917Z,23.50
2023-05-09T13:31:07.995Z,23.40
2023-05-09T13:33:35.164Z,23.30
2023-05-09T13:36:02.218Z,23.30
2023-05-09T13:38:31.062Z,23.30
2023-05-09T13:40:58.377Z,23.30
2023-05-09T13:43:25.378Z,23.20
2023-05-09T13:45:52.377Z,23.00
2023-05-09T13:48:19.333Z,23.10
2023-05-09T13:50:46.885Z,23.00
2023-05-09T13:53:13.824Z,23.00
2023-05-09T13:55:40.798Z,23.00
2023-05-09T13:58:07.780Z,22.90
2023-05-09T14:00:35.004Z,22.80
2023-05-09T14:03:03.165Z,22.70
2023-05-09T14:05:33.446Z,22.70
2023-05-09T14:08:01.529Z,22.70
2023-05-09T14:10:28.969Z,22.50
2023-05-09T14:12:56.893Z,22.50
2023-05-09T14:15:23.867Z,22.50
2023-05-09T14:17:50.898Z,22.50
2023-05-09T14:20:18.236Z,22.40
2023-05-09T14:22:45.362Z,22.30
2023-05-09T14:25:12.481Z,22.20
2023-05-09T14:27:39.559Z,22.20
2023-05-09T14:30:07.517Z,22.20
2023-05-09T14:32:34.428Z,22.10
2023-05-09T14:35:01.434Z,22.10
2023-05-09T14:37:29.271Z,22.00
2023-05-09T14:39:56.287Z,22.00
2023-05-09T14:42:23.373Z,21.90
2023-05-09T14:44:50.323Z,21.90
2023-05-09T14:47:17.588Z,21.80
2023-05-09T14:49:44.763Z,21.70
2023-05-09T14:52:12.039Z,21.90
2023-05-09T14:54:39.089Z,21.60
2023-05-09T14:57:07.371Z,21.50
2023-05-09T14:59:36.833Z,21.40
2023-05-09T15:02:04.263Z,21.40
2023-05-09T15:04:31.732Z,21.30
2023-05-09T15:06:58.953Z,21.30
2023-05-09T15:09:26.488Z,21.30
2023-05-09T15:11:54.726Z,21.20
2023-05-09T15:14:21.944Z,21.10
2023-05-09T15:16:51.445Z,21.20
2023-05-09T15:19:18.920Z,20.80
2023-05-09T15:21:45.912Z,20.90
2023-05-09T15:24:12.986Z,20.80
2023-05-09T15:26:39.940Z,20.80
2023-05-09T15:29:07.227Z,20.70
2023-05-09T15:31:36.812Z,20.70
2023-05-09T15:34:04.570Z,20.60
2023-05-09T15:36:33.706Z,20.60
2023-05-09T15:39:01.052Z,20.60
2023-05-09T15:41:28.616Z,20.50
2023-05-09T15:43:55.593Z,20.40
2023-05-09T15:46:22.787Z,20.40
2023-05-09T15:48:50.553Z,20.40
2023-05-09T15:51:17.501Z,20.20
2023-05-09T15:53:44.535Z,20.20
2023-05-09T15:56:11.796Z,20.10
2023-05-09T15:58:40.287Z,20.20
2023-05-09T16:01:08.174Z,20.00
2023-05-09T16:03:35.560Z,20.00
2023-05-09T16:06:03.244Z,19.90
2023-05-09T16:08:30.168Z,19.80
2023-05-09T16:11:00.657Z,19.70
2023-05-09T16:13:27.775Z,19.70
2023-05-09T16:15:54.855Z,19.60
2023-05-09T16:18:21.832Z,19.60
2023-05-09T16:20:48.805Z,19.50
2023-05-09T16:23:15.750Z,19.40
2023-05-09T16:25:42.744Z,19.40
2023-05-09T16:28:09.704Z,19.40
2023-05-09T16:30:36.937Z,19.30
2023-05-09T16:33:03.986Z,19.50
2023-05-09T16:35:30.979Z,19.30
2023-05-09T16:37:58.052Z,19.20
2023-05-09T16:40:24.994Z,19.20
2023-05-09T16:42:53.002Z,19.20
2023-05-09T16:45:19.920Z,19.20
2023-05-09T16:47:46.894Z,19.10
2023-05-09T16:50:14.055Z,19.10
2023-05-09T16:52:41.227Z,19.20
2023-05-09T16:55:08.673Z,19.10
2023-05-09T16:57:35.908Z,19.10
2023-05-09T17:00:03.103Z,19.00
2023-05-09T17:02:30.149Z,19.00
2023-05-09T17:04:57.528Z,19.00
2023-05-09T17:07:24.771Z,19.00
2023-05-09T17:09:51.746Z,19.00
2023-05-09T17:12:18.740Z,19.00
2023-05-09T17:14:47.527Z,19.00
2023-05-09T17:17:15.395Z,19.30
2023-05-09T17:19:42.629Z,18.90
2023-05-09T17:22:09.832Z,18.90
2023-05-09T17:24:37.274Z,18.90
2023-05-09T17:27:05.135Z,18.80
2023-05-09T17:29:32.215Z,18.80
2023-05-09T17:32:02.296Z,18.70
2023-05-09T17:34:29.642Z,18.60
2023-05-09T17:36:58.355Z,18.50
2023-05-09T17:39:25.389Z,18.50
2023-05-09T17:41:52.357Z,18.40
2023-05-09T17:44:19.378Z,18.30
2023-05-09T17:46:48.029Z,18.30
2023-05-09T17:49:16.037Z,18.20
2023-05-09T17:51:43.351Z,18.10
2023-05-09T17:54:11.026Z,18.10
2023-05-09T17:56:38.520Z,18.00
2023-05-09T17:59:06.470Z,17.90
2023-05-09T18:01:33.468Z,17.90
2023-05-09T18:04:00.772Z,17.80
2023-05-09T18:06:28.893Z,17.70
2023-05-09T18:08:55.894Z,17.70
2023-05-09T18:11:23.043Z,17.60
2023-05-09T18:13:50.751Z,17.60
2023-05-09T18:16:17.762Z,17.50
2023-05-09T18:18:44.913Z,17.40
2023-05-09T18:21:12.010Z,17.40
2023-05-09T18:23:38.987Z,17.30
2023-05-09T18:26:05.984Z,17.30
2023-05-09T18:28:39.060Z,17.20
2023-05-09T18:31:09.473Z,17.20
2023-05-09T18:33:36.743Z,17.10
2023-05-09T18:36:04.061Z,17.10
2023-05-09T18:38:34.675Z,17.00
2023-05-09T18:41:02.025Z,17.00
2023-05-09T18:43:30.616Z,17.00
2023-05-09T18:45:57.545Z,16.90
2023-05-09T18:48:25.559Z,16.90
2023-05-09T18:50:52.579Z,16.80
2023-05-09T18:53:20.261Z,16.80
2023-05-09T18:55:48.107Z,16.70
2023-05-09T18:58:15.344Z,16.70
2023-05-09T19:00:42.793Z,16.70
2023-05-09T19:03:10.229Z,16.60
2023-05-09T19:05:37.224Z,16.60
2023-05-09T19:08:04.780Z,16.50
2023-05-09T19:10:31.888Z,16.60
2023-05-09T19:12:58.937Z,16.60
2023-05-09T19:15:26.013Z,16.50
2023-05-09T19:17:53.123Z,16.50
2023-05-09T19:20:20.293Z,16.50
2023-05-09T19:22:51.216Z,16.50
2023-05-09T19:25:18.857Z,16.90
2023-05-09T19:27:46.746Z,16.50
2023-05-09T19:30:15.396Z,16.50
2023-05-09T19:32:42.861Z,16.50
2023-05-09T19:35:10.334Z,16.50
2023-05-09T19:37:37.529Z,16.40
2023-05-09T19:40:06.271Z,16.40
2023-05-09T19:42:34.538Z,16.40
2023-05-09T19:45:01.593Z,16.40
2023-05-09T19:47:28.864Z,16.40
2023-05-09T19:49:55.979Z,16.40
2023-05-09T19:52:23.350Z,16.40
2023-05-09T19:54:50.697Z,16.40
2023-05-09T19:57:17.678Z,16.40
2023-05-09T19:59:44.799Z,16.40
2023-05-09T20:02:11.724Z,16.40
2023-05-09T20:04:38.890Z,16.40
2023-05-09T20:07:06.024Z,16.40
2023-05-09T20:09:33.074Z,16.30
2023-05-09T20:12:03.439Z,16.30
2023-05-09T20:14:31.733Z,16.30
2023-05-09T20:16:58.725Z,16.30
2023-05-09T20:19:25.705Z,16.30
2023-05-09T20:21:52.648Z,16.30
2023-05-09T20:24:20.231Z,16.30
2023-05-09T20:26:47.151Z,16.50
2023-05-09T20:29:14.226Z,16.30
2023-05-09T20:31:41.599Z,16.70
2023-05-09T20:34:10.807Z,16.30
2023-05-09T20:36:38.186Z,16.30
2023-05-09T20:39:05.194Z,16.30
2023-05-09T20:41:32.551Z,16.20
2023-05-09T20:44:03.883Z,16.20
2023-05-09T20:46:31.256Z,16.30
2023-05-09T20:48:58.177Z,16.20
2023-05-09T20:51:25.221Z,16.20
2023-05-09T20:53:52.131Z,16.20
2023-05-09T20:56:19.505Z,16.20
2023-05-09T20:58:46.428Z,16.20
2023-05-09T21:01:13.378Z,16.20
2023-05-09T21:03:40.463Z,16.20
2023-05-09T21:06:07.891Z,16.20
2023-05-09T21:08:34.945Z,16.20
2023-05-09T21:11:01.903Z,16.20
2023-05-09T21:13:29.084Z,16.20
2023-05-09T21:15:56.086Z,16.20
2023-05-09T21:18:23.325Z,16.20
2023-05-09T21:20:50.685Z,16.20
2023-05-09T21:23:18.634Z,16.20
2023-05-09T21:25:45.614Z,16.20
2023-05-09T21:28:14.715Z,16.20
2023-05-09T21:30:41.755Z,16.20
2023-05-09T21:33:09.076Z,16.20
2023-05-09T21:35:36.068Z,16.20
2023-05-09T21:38:03.531Z,16.20
2023-05-09T21:40:30.496Z,16.20
2023-05-09T21:42:57.456Z,16.20
2023-05-09T21:45:24.348Z,16.20
2023-05-09T21:47:51.384Z,16.10
2023-05-09T21:50:18.964Z,16.20
2023-05-09T21:52:46.084Z,16.20
2023-05-09T21:55:13.284Z,16.10
2023-05-09T21:57:40.267Z,16.20
2023-05-09T22:00:13.714Z,16.10
2023-05-09T22:02:44.060Z,16.10
2023-05-09T22:05:12.099Z,16.20
2023-05-09T22:07:39.394Z,16.10
2023-05-09T22:10:07.186Z,16.10
2023-05-09T22:12:34.269Z,16.10
2023-05-09T22:15:01.252Z,16.10
2023-05-09T22:17:28.224Z,16.10
2023-05-09T22:19:55.236Z,16.10
2023-05-09T22:22:22.471Z,16.10
2023-05-09T22:24:49.752Z,16.10
2023-05-09T22:27:16.850Z,16.10
2023-05-09T22:29:43.842Z,16.10
2023-05-09T22:32:11.480Z,16.10
2023-05-09T22:34:38.481Z,16.10
2023-05-09T22:37:05.463Z,16.20
2023-05-09T22:39:32.507Z,16.20
2023-05-09T22:41:59.467Z,16.20
2023-05-09T22:44:26.898Z,16.20
2023-05-09T22:46:53.822Z,16.20
2023-05-09T22:49:20.903Z,16.20
2023-05-09T22:51:47.816Z,16.20
2023-05-09T22:54:14.791Z,16.20
2023-05-09T22:56:43.089Z,16.20
2023-05-09T22:59:10.073Z,16.20
2023-05-09T23:01:37.019Z,16.20
2023-05-09T23:04:03.986Z,16.20
2023-05-09T23:06:31.326Z,16.20
2023-05-09T23:08:58.259Z,16.20
2023-05-09T23:11:25.793Z,16.20
2023-05-09T23:13:52.734Z,16.30
2023-05-09T23:16:19.681Z,16.30
2023-05-09T23:18:46.666Z,16.30
2023-05-09T23:21:13.628Z,16.30
2023-05-09T23:23:40.689Z,16.30
2023-05-09T23:26:07.678Z,16.30
2023-05-09T23:28:34.655Z,16.30
2023-05-09T23:31:01.619Z,16.30
2023-05-09T23:33:28.573Z,16.20
2023-05-09T23:35:55.806Z,16.20
2023-05-09T23:38:22.797Z,16.20
2023-05-09T23:40:49.751Z,16.30
2023-05-09T23:43:17.954Z,16.30
2023-05-09T23:45:44.880Z,16.20
2023-05-09T23:48:11.803Z,16.30
2023-05-09T23:50:38.734Z,16.20
2023-05-09T23:53:06.474Z,16.20
2023-05-09T23:55:33.497Z,16.40
2023-05-09T23:58:02.374Z,16.20
